Time;durP1;ratioP1;P1;durP2;ratioP2;P2;SDS_P1;SDS_P2;PMS_P1;PMS_P2;Temp;Humidity;BMP_temperature;BMP_pressure;BME280_temperature;BME280_humidity;BME280_pressure;Samples;Min_cycle;Max_cycle;Signal;HPM_P1;HPM_P2
2023/09/07 00:03:41;;;;;;;10.30;6.00;;;;;;;14.17;100.00;101383.68;102502;1289;603893;-50
2023/09/07 00:06:09;;;;;;;16.00;5.40;;;;;;;14.24;100.00;101378.34;105124;1264;61616;-49
2023/09/07 00:08:36;;;;;;;10.60;5.40;;;;;;;14.26;100.00;101380.38;105132;1264;60277;-49
2023/09/07 00:11:06;;;;;;;9.00;5.20;;;;;;;14.28;100.00;101377.58;105083;1271;72187;-50
2023/09/07 00:13:34;;;;;;;16.30;5.20;;;;;;;14.29;100.00;101378.60;105121;1269;64662;-49
2023/09/07 00:16:04;;;;;;;15.00;5.70;;;;;;;14.30;100.00;101376.84;104994;1269;219057;-51
2023/09/07 00:18:32;;;;;;;11.90;6.10;;;;;;;14.30;100.00;101373.02;105302;1265;61923;-53
2023/09/07 00:21:00;;;;;;;17.10;6.10;;;;;;;14.31;100.00;101371.42;105090;1265;59231;-49
2023/09/07 00:23:27;;;;;;;12.30;6.30;;;;;;;14.32;100.00;101370.73;105249;1262;72159;-55
2023/09/07 00:25:54;;;;;;;16.80;6.70;;;;;;;14.33;100.00;101367.58;105225;1267;64449;-51
2023/09/07 00:28:22;;;;;;;13.80;6.30;;;;;;;14.34;100.00;101364.42;105222;1263;72582;-52
2023/09/07 00:30:49;;;;;;;14.10;6.10;;;;;;;14.33;100.00;101362.37;105157;1267;61674;-52
2023/09/07 00:33:16;;;;;;;11.60;5.50;;;;;;;14.33;100.00;101360.79;105242;1264;60249;-50
2023/09/07 00:35:43;;;;;;;13.30;5.80;;;;;;;14.34;100.00;101361.83;105221;1264;72121;-50
2023/09/07 00:38:11;;;;;;;17.00;6.20;;;;;;;14.34;100.00;101359.23;105240;1266;64529;-52
2023/09/07 00:40:38;;;;;;;8.60;5.30;;;;;;;14.32;100.00;101358.74;105238;1263;72700;-51
2023/09/07 00:43:05;;;;;;;10.10;5.90;;;;;;;14.25;100.00;101357.66;105226;1266;60466;-49
2023/09/07 00:45:32;;;;;;;11.00;6.00;;;;;;;14.15;100.00;101360.44;105609;1256;60309;-50
2023/09/07 00:47:59;;;;;;;12.00;5.10;;;;;;;14.05;100.00;101363.41;105604;1260;73531;-52
2023/09/07 00:50:27;;;;;;;7.10;5.10;;;;;;;13.94;100.00;101364.13;105595;1256;64659;-52
2023/09/07 00:52:54;;;;;;;16.50;5.80;;;;;;;13.86;100.00;101365.48;105624;1254;72522;-50
2023/09/07 00:55:23;;;;;;;9.10;5.40;;;;;;;13.80;100.00;101365.79;105607;1260;61900;-49
2023/09/07 00:57:50;;;;;;;13.10;5.60;;;;;;;13.75;100.00;101363.94;105609;1254;60006;-50
2023/09/07 01:00:17;;;;;;;8.10;5.50;;;;;;;13.73;100.00;101365.36;105576;1258;73560;-49
2023/09/07 01:02:44;;;;;;;8.60;5.60;;;;;;;13.70;100.00;101363.15;105634;1260;64582;-51
2023/09/07 01:05:12;;;;;;;9.00;6.20;;;;;;;13.67;100.00;101363.91;105655;1257;72721;-52
2023/09/07 01:07:47;;;;;;;12.80;5.90;;;;;;;13.63;100.00;101362.92;105595;1256;61996;-51
2023/09/07 01:10:15;;;;;;;14.30;5.60;;;;;;;13.60;100.00;101364.18;105661;1254;60053;-51
2023/09/07 01:12:42;;;;;;;12.00;5.40;;;;;;;13.58;100.00;101365.44;105617;1260;72743;-51
2023/09/07 01:15:10;;;;;;;9.90;5.30;;;;;;;13.57;100.00;101366.32;105623;1259;64640;-50
2023/09/07 01:17:36;;;;;;;9.30;6.00;;;;;;;13.56;100.00;101366.68;105625;1259;71418;-50
2023/09/07 01:20:10;;;;;;;12.20;6.30;;;;;;;13.57;100.00;101371.17;105779;1257;62003;-49
2023/09/07 01:22:37;;;;;;;10.30;5.40;;;;;;;13.58;100.00;101366.46;105657;1256;60174;-50
2023/09/07 01:25:06;;;;;;;7.20;5.40;;;;;;;13.59;100.00;101363.85;105573;1258;73050;-50
2023/09/07 01:27:34;;;;;;;10.20;5.80;;;;;;;13.59;100.00;101359.52;105648;1257;64064;-50
2023/09/07 01:30:05;;;;;;;12.00;5.60;;;;;;;13.58;100.00;101359.71;105624;1260;72507;-52
2023/09/07 01:32:32;;;;;;;8.30;5.50;;;;;;;13.57;100.00;101360.79;105643;1257;60950;-52
2023/09/07 01:35:00;;;;;;;12.90;6.00;;;;;;;13.57;100.00;101358.70;105620;1256;59609;-52
2023/09/07 01:37:27;;;;;;;11.40;6.10;;;;;;;13.56;100.00;101356.45;105608;1260;73011;-50
2023/09/07 01:39:55;;;;;;;15.30;5.30;;;;;;;13.58;100.00;101360.06;105583;1260;64699;-49
2023/09/07 01:42:22;;;;;;;14.20;5.40;;;;;;;13.61;100.00;101356.36;105592;1256;72622;-50
2023/09/07 01:44:50;;;;;;;11.50;5.50;;;;;;;13.62;100.00;101354.26;105640;1256;60320;-50
2023/09/07 01:47:17;;;;;;;11.00;5.20;;;;;;;13.62;100.00;101354.80;105642;1255;60274;-49
2023/09/07 01:49:44;;;;;;;14.50;6.00;;;;;;;13.63;100.00;101350.27;105635;1258;72986;-49
2023/09/07 01:52:12;;;;;;;16.20;6.20;;;;;;;13.63;100.00;101350.63;105648;1259;64657;-50
2023/09/07 01:54:39;;;;;;;8.90;6.10;;;;;;;13.62;100.00;101348.02;105645;1257;72742;-50
2023/09/07 01:57:06;;;;;;;15.00;5.60;;;;;;;13.62;100.00;101345.25;105618;1259;61955;-49
2023/09/07 01:59:33;;;;;;;8.80;6.20;;;;;;;13.63;100.00;101346.97;105601;1257;60323;-51
2023/09/07 02:02:01;;;;;;;7.10;5.90;;;;;;;13.67;100.00;101346.38;105620;1260;73033;-50
2023/09/07 02:04:29;;;;;;;13.10;5.30;;;;;;;13.69;100.00;101344.98;105627;1259;64701;-50
2023/09/07 02:06:56;;;;;;;13.50;5.90;;;;;;;13.68;100.00;101348.80;105609;1259;72611;-51
2023/09/07 02:09:23;;;;;;;14.40;5.70;;;;;;;13.67;100.00;101348.64;105560;1256;62118;-52
2023/09/07 02:11:50;;;;;;;15.50;5.10;;;;;;;13.64;100.00;101349.20;105638;1257;60120;-50
2023/09/07 02:14:17;;;;;;;15.20;6.60;;;;;;;13.64;100.00;101352.34;105621;1257;72020;-50
2023/09/07 02:16:44;;;;;;;12.90;6.30;;;;;;;13.65;100.00;101357.17;105630;1259;64729;-50
2023/09/07 02:19:11;;;;;;;13.70;7.00;;;;;;;13.68;100.00;101354.52;105612;1256;72607;-50
2023/09/07 02:21:40;;;;;;;16.30;7.00;;;;;;;13.70;100.00;101349.62;105608;1259;61820;-50
2023/09/07 02:24:07;;;;;;;14.10;7.00;;;;;;;13.70;100.00;101354.66;105665;1257;60087;-52
2023/09/07 02:26:35;;;;;;;14.70;6.40;;;;;;;13.70;100.00;101356.21;105621;1256;72809;-50
2023/09/07 02:29:06;;;;;;;11.80;5.40;;;;;;;13.71;100.00;101353.60;105611;1260;64656;-52
2023/09/07 02:31:33;;;;;;;13.00;5.70;;;;;;;13.72;100.00;101360.52;105666;1259;72588;-52
2023/09/07 02:34:00;;;;;;;15.50;6.80;;;;;;;13.72;100.00;101358.42;105549;1260;61729;-55
2023/09/07 02:36:27;;;;;;;16.80;6.50;;;;;;;13.73;100.00;101362.41;105450;1257;60191;-52
2023/09/07 02:38:54;;;;;;;18.10;7.20;;;;;;;13.75;100.00;101360.12;105564;1258;73161;-51
2023/09/07 02:41:22;;;;;;;10.90;6.80;;;;;;;13.76;100.00;101361.16;105664;1257;63284;-58
2023/09/07 02:43:49;;;;;;;24.20;7.30;;;;;;;13.77;100.00;101357.48;105644;1257;72702;-50
2023/09/07 02:46:16;;;;;;;10.40;6.70;;;;;;;13.80;100.00;101358.31;105630;1260;61940;-54
2023/09/07 02:48:43;;;;;;;18.60;7.30;;;;;;;13.81;100.00;101354.99;105613;1257;59997;-52
2023/09/07 02:51:10;;;;;;;10.20;6.50;;;;;;;13.81;100.00;101352.23;105676;1257;73007;-52
2023/09/07 02:53:37;;;;;;;22.60;6.70;;;;;;;13.80;100.00;101352.92;105642;1259;64612;-50
2023/09/07 02:56:04;;;;;;;14.90;6.90;;;;;;;13.81;100.00;101353.96;105606;1257;73124;-53
2023/09/07 02:58:33;;;;;;;13.40;7.00;;;;;;;13.79;100.00;101349.30;105656;1259;59718;-52
2023/09/07 03:01:00;;;;;;;18.20;7.80;;;;;;;13.75;100.00;101349.37;105669;1256;60068;-52
2023/09/07 03:03:27;;;;;;;12.60;6.90;;;;;;;13.73;100.00;101355.14;105533;1258;72717;-52
2023/09/07 03:05:54;;;;;;;13.20;6.70;;;;;;;13.70;100.00;101357.60;105628;1260;63541;-52
2023/09/07 03:08:23;;;;;;;12.00;6.80;;;;;;;13.69;100.00;101368.04;105541;1256;72611;-54
2023/09/07 03:10:50;;;;;;;15.40;6.70;;;;;;;13.67;100.00;101373.28;105696;1259;62046;-52
2023/09/07 03:13:17;;;;;;;11.80;6.40;;;;;;;13.64;100.00;101375.73;105622;1256;60327;-51
2023/09/07 03:15:44;;;;;;;13.80;7.60;;;;;;;13.62;100.00;101380.27;105612;1256;73012;-52
2023/09/07 03:18:12;;;;;;;20.00;7.40;;;;;;;13.60;100.00;101387.23;105655;1259;63706;-50
2023/09/07 03:20:40;;;;;;;24.10;7.50;;;;;;;13.58;100.00;101387.65;105652;1257;72755;-51
2023/09/07 03:23:07;;;;;;;12.90;6.80;;;;;;;13.57;100.00;101390.93;105618;1257;60511;-51
2023/09/07 03:25:35;;;;;;;14.50;7.20;;;;;;;13.56;100.00;101388.19;105660;1256;60211;-51
2023/09/07 03:28:03;;;;;;;18.40;7.60;;;;;;;13.58;100.00;101389.55;105667;1259;73143;-52
2023/09/07 03:30:31;;;;;;;17.30;6.90;;;;;;;13.62;100.00;101389.99;105599;1257;63737;-53
2023/09/07 03:32:58;;;;;;;16.10;7.50;;;;;;;13.67;100.00;101388.71;105575;1262;71538;-51
2023/09/07 03:35:25;;;;;;;13.40;7.50;;;;;;;13.71;100.00;101392.63;105672;1259;60310;-51
2023/09/07 03:37:52;;;;;;;15.40;7.60;;;;;;;13.73;100.00;101402.83;105632;1256;60724;-51
2023/09/07 03:40:19;;;;;;;12.90;7.40;;;;;;;13.73;100.00;101407.85;105545;1256;73018;-51
2023/09/07 03:42:46;;;;;;;10.40;6.70;;;;;;;13.73;100.00;101415.47;105614;1256;64690;-50
2023/09/07 03:45:13;;;;;;;13.70;7.10;;;;;;;13.76;100.00;101418.05;105878;1256;72527;-51
2023/09/07 03:47:41;;;;;;;18.80;8.30;;;;;;;13.78;100.00;101427.56;105889;1253;60744;-51
2023/09/07 03:50:09;;;;;;;20.80;8.00;;;;;;;13.81;100.00;101436.89;105932;1253;60196;-52
2023/09/07 03:52:36;;;;;;;14.90;8.00;;;;;;;13.85;100.00;101441.15;105898;1256;71797;-51
2023/09/07 03:55:04;;;;;;;16.60;7.90;;;;;;;13.88;100.00;101450.11;105966;1255;64620;-51
2023/09/07 03:57:32;;;;;;;14.10;7.20;;;;;;;13.92;100.00;101456.13;105943;1253;72324;-51
2023/09/07 04:00:00;;;;;;;13.70;7.20;;;;;;;13.96;100.00;101461.96;105934;1256;62072;-50
2023/09/07 04:02:27;;;;;;;16.60;7.20;;;;;;;14.00;100.00;101468.66;105844;1253;60189;-49
2023/09/07 04:04:57;;;;;;;13.70;7.20;;;;;;;14.04;100.00;101480.57;105899;1253;73018;-49
2023/09/07 04:07:24;;;;;;;12.60;7.60;;;;;;;14.09;100.00;101483.10;105902;1257;64880;-50
2023/09/07 04:09:51;;;;;;;18.80;8.40;;;;;;;14.14;100.00;101493.42;105855;1256;72443;-51
2023/09/07 04:12:18;;;;;;;19.30;8.00;;;;;;;14.20;100.00;101500.44;105902;1256;61933;-49
2023/09/07 04:14:46;;;;;;;12.50;7.20;;;;;;;14.26;100.00;101510.75;105925;1253;60406;-49
2023/09/07 04:17:13;;;;;;;14.30;7.40;;;;;;;14.30;100.00;101525.61;105955;1256;73795;-50
2023/09/07 04:19:41;;;;;;;15.50;7.90;;;;;;;14.35;100.00;101542.91;105958;1255;64655;-51
2023/09/07 04:22:08;;;;;;;10.60;7.30;;;;;;;14.38;100.00;101556.20;105912;1253;71523;-51
2023/09/07 04:24:35;;;;;;;14.10;7.90;;;;;;;14.45;100.00;101572.59;105879;1253;60946;-50
2023/09/07 04:27:04;;;;;;;22.40;7.10;;;;;;;14.54;100.00;101585.46;105949;1253;60473;-51
2023/09/07 04:29:32;;;;;;;12.80;7.20;;;;;;;14.66;100.00;101600.91;105919;1256;73736;-50
2023/09/07 04:32:00;;;;;;;21.60;7.50;;;;;;;14.79;100.00;101619.47;105957;1256;64702;-49
2023/09/07 04:34:43;;;;;;;19.50;7.80;;;;;;;14.98;100.00;101638.95;105907;1252;72543;-50
2023/09/07 04:37:10;;;;;;;18.30;7.70;;;;;;;15.15;100.00;101663.84;105935;1256;61788;-52
2023/09/07 04:39:41;;;;;;;14.60;7.30;;;;;;;15.34;100.00;101685.23;105940;1252;60534;-52
2023/09/07 04:42:08;;;;;;;14.90;7.40;;;;;;;15.52;100.00;101721.59;105862;1253;73888;-51
2023/09/07 04:44:36;;;;;;;14.40;6.60;;;;;;;15.68;100.00;101758.01;105900;1256;64681;-49
2023/09/07 04:47:04;;;;;;;17.00;7.10;;;;;;;15.76;100.00;101799.27;105949;1253;70320;-50
2023/09/07 04:49:32;;;;;;;16.60;7.20;;;;;;;15.82;100.00;101843.73;105931;1253;61951;-53
2023/09/07 04:51:59;;;;;;;13.00;6.20;;;;;;;15.89;100.00;101882.60;105933;1251;60444;-53
2023/09/07 04:54:25;;;;;;;11.10;6.90;;;;;;;15.96;100.00;101917.13;105974;1253;73899;-51
2023/09/07 04:56:53;;;;;;;12.00;7.50;;;;;;;15.99;100.00;101937.77;105963;1256;64574;-54
2023/09/07 04:59:20;;;;;;;48.90;22.90;;;;;;;16.00;100.00;101954.64;105938;1253;72642;-52
2023/09/07 05:01:47;;;;;;;50.80;26.00;;;;;;;16.08;100.00;101960.95;105840;1257;61729;-52
2023/09/07 05:04:14;;;;;;;29.30;14.60;;;;;;;16.16;100.00;101959.25;105995;1253;60749;-53
2023/09/07 05:06:43;;;;;;;17.50;9.90;;;;;;;16.21;100.00;101961.26;105935;1254;73797;-51
2023/09/07 05:09:11;;;;;;;13.80;8.20;;;;;;;16.20;100.00;101954.13;105937;1253;64890;-52
2023/09/07 05:11:38;;;;;;;9.10;6.70;;;;;;;16.18;100.00;101941.63;105844;1251;72560;-51
2023/09/07 05:14:05;;;;;;;17.50;8.00;;;;;;;16.18;100.00;101931.69;105851;1253;61334;-50
2023/09/07 05:16:32;;;;;;;19.70;8.60;;;;;;;16.17;100.00;101921.63;105892;1251;60434;-49
2023/09/07 05:18:59;;;;;;;12.90;7.00;;;;;;;16.18;100.00;101917.44;105907;1256;73887;-51
2023/09/07 05:21:26;;;;;;;11.90;7.00;;;;;;;16.19;100.00;101908.52;105945;1253;64676;-52
2023/09/07 05:23:53;;;;;;;13.70;7.70;;;;;;;16.20;100.00;101901.20;105939;1251;72570;-52
2023/09/07 05:26:22;;;;;;;22.90;10.90;;;;;;;16.23;100.00;101902.16;105918;1256;60483;-52
2023/09/07 05:28:49;;;;;;;24.40;10.70;;;;;;;16.28;100.00;101903.65;105983;1252;60464;-52
2023/09/07 05:31:16;;;;;;;15.30;8.00;;;;;;;16.33;100.00;101900.60;105908;1252;73865;-52
2023/09/07 05:33:43;;;;;;;15.60;7.20;;;;;;;16.40;100.00;101890.00;105938;1256;64445;-52
2023/09/07 05:36:10;;;;;;;17.10;7.90;;;;;;;16.47;100.00;101878.89;105955;1253;72631;-51
2023/09/07 05:38:37;;;;;;;9.30;5.80;;;;;;;16.55;100.00;101875.07;105911;1253;60453;-51
2023/09/07 05:41:06;;;;;;;16.70;6.10;;;;;;;16.62;100.00;101871.77;105957;1253;60422;-51
2023/09/07 05:43:33;;;;;;;15.80;5.70;;;;;;;16.71;100.00;101866.71;105708;1255;73532;-51
2023/09/07 05:45:59;;;;;;;20.10;6.50;;;;;;;16.79;100.00;101843.86;105858;1257;64713;-52
2023/09/07 05:48:27;;;;;;;11.20;5.50;;;;;;;16.85;100.00;101828.23;105909;1253;72655;-50
2023/09/07 05:50:55;;;;;;;10.90;4.80;;;;;;;16.94;100.00;101825.74;105943;1256;60332;-51
2023/09/07 05:53:24;;;;;;;13.40;4.70;;;;;;;17.04;100.00;101789.45;105872;1253;60416;-52
2023/09/07 05:55:52;;;;;;;10.60;5.10;;;;;;;17.16;100.00;101721.15;105830;1253;73735;-52
2023/09/07 05:58:19;;;;;;;8.50;4.30;;;;;;;17.27;100.00;101652.66;105925;1253;64707;-50
2023/09/07 06:00:46;;;;;;;9.80;4.50;;;;;;;17.36;100.00;101562.23;105977;1253;72698;-51
2023/09/07 06:03:14;;;;;;;4.90;4.00;;;;;;;17.46;100.00;101535.75;106001;1255;61841;-51
2023/09/07 06:05:41;;;;;;;7.90;4.00;;;;;;;17.59;100.00;101503.95;105927;1256;60325;-50
2023/09/07 06:08:08;;;;;;;9.60;4.00;;;;;;;17.70;100.00;101461.91;105907;1256;73856;-50
2023/09/07 06:10:36;;;;;;;7.60;4.80;;;;;;;17.81;100.00;101405.34;105940;1256;64675;-51
2023/09/07 06:13:04;;;;;;;9.20;4.70;;;;;;;17.91;100.00;101340.40;105900;1251;72708;-50
2023/09/07 06:15:32;;;;;;;11.20;4.20;;;;;;;18.00;100.00;101291.36;105946;1256;60369;-50
2023/09/07 06:17:59;;;;;;;5.80;3.80;;;;;;;18.09;100.00;101239.20;105967;1252;60548;-49
2023/09/07 06:20:26;;;;;;;8.40;3.80;;;;;;;18.17;100.00;101204.66;105955;1256;73628;-49
2023/09/07 06:22:55;;;;;;;8.40;3.90;;;;;;;18.24;100.00;101138.71;105920;1256;63514;-51
2023/09/07 06:25:23;;;;;;;6.10;3.50;;;;;;;18.31;100.00;101109.63;105930;1252;72623;-50
2023/09/07 06:27:51;;;;;;;12.10;4.00;;;;;;;18.37;100.00;101088.95;105909;1251;60343;-50
2023/09/07 06:30:18;;;;;;;13.30;4.70;;;;;;;18.43;100.00;101052.18;105977;1253;60486;-51
2023/09/07 06:32:48;;;;;;;9.80;4.00;;;;;;;18.48;100.00;101025.78;105981;1254;73855;-51
2023/09/07 06:35:15;;;;;;;8.90;4.00;;;;;;;18.53;100.00;101022.56;105970;1256;64461;-51
2023/09/07 06:37:43;;;;;;;5.70;3.40;;;;;;;18.58;100.00;101018.37;105965;1253;72655;-51
2023/09/07 06:41:27;;;;;;;10.00;4.10;;;;;;;18.67;100.00;100990.85;102616;1291;599591;-51
2023/09/07 06:43:55;;;;;;;11.70;4.30;;;;;;;18.77;100.00;101016.64;104850;1266;60032;-50
2023/09/07 06:46:23;;;;;;;6.20;4.20;;;;;;;18.86;100.00;101012.94;104756;1273;59365;-51
2023/09/07 06:48:51;;;;;;;8.60;4.00;;;;;;;18.94;100.00;101016.96;104792;1271;71461;-50
2023/09/07 06:51:19;;;;;;;11.60;4.20;;;;;;;19.00;100.00;101017.26;104730;1273;64520;-50
2023/09/07 06:53:47;;;;;;;14.10;4.70;;;;;;;19.05;100.00;101022.28;104838;1267;72032;-50
2023/09/07 06:56:26;;;;;;;6.50;4.50;;;;;;;19.08;100.00;101017.95;104875;1264;59449;-49
2023/09/07 06:58:54;;;;;;;9.60;4.60;;;;;;;19.14;100.00;101018.90;105459;1264;60651;-49
2023/09/07 07:01:22;;;;;;;10.30;4.60;;;;;;;19.19;100.00;101011.66;105598;1257;71001;-51
2023/09/07 07:03:50;;;;;;;17.90;4.60;;;;;;;19.27;100.00;101010.43;105452;1263;64859;-51
2023/09/07 07:06:18;;;;;;;9.10;3.70;;;;;;;19.36;100.00;101016.86;105577;1257;71726;-56
2023/09/07 07:08:46;;;;;;;7.60;5.00;;;;;;;19.45;100.00;101017.14;105574;1262;60032;-56
2023/09/07 07:11:13;;;;;;;13.50;4.90;;;;;;;19.58;100.00;101017.42;105556;1257;59531;-53
2023/09/07 07:13:41;;;;;;;8.30;4.20;;;;;;;19.71;100.00;101025.93;105524;1262;73118;-51
2023/09/07 07:16:10;;;;;;;7.40;4.30;;;;;;;19.83;100.00;101043.88;105622;1258;63313;-50
2023/09/07 07:18:39;;;;;;;10.10;3.80;;;;;;;19.93;100.00;101046.79;105588;1257;72605;-52
2023/09/07 07:21:21;;;;;;;12.20;4.30;;;;;;;20.03;100.00;101052.95;105540;1261;59617;-51
2023/09/07 07:23:49;;;;;;;12.40;4.30;;;;;;;20.15;100.00;101068.14;105689;1257;60011;-52
2023/09/07 07:26:17;;;;;;;6.60;4.40;;;;;;;20.22;100.00;101087.08;105603;1255;71887;-51
2023/09/07 07:28:45;;;;;;;7.30;4.20;;;;;;;20.30;100.00;101075.64;105679;1260;63242;-50
2023/09/07 07:31:28;;;;;;;11.80;4.10;;;;;;;20.44;100.00;101082.29;105600;1257;71969;-51
2023/09/07 07:33:56;;;;;;;6.50;3.60;;;;;;;20.57;100.00;101087.44;105607;1257;59688;-50
2023/09/07 07:36:24;;;;;;;6.30;3.70;;;;;;;20.70;100.00;101104.34;105562;1262;59579;-53
2023/09/07 07:38:51;;;;;;;6.00;4.20;;;;;;;20.82;100.00;101131.09;105605;1257;73100;-50
2023/09/07 07:41:20;;;;;;;10.60;3.80;;;;;;;20.98;100.00;101135.94;105693;1254;63682;-53
2023/09/07 07:43:48;;;;;;;6.00;3.50;;;;;;;21.14;100.00;101140.54;105691;1254;71452;-51
2023/09/07 07:46:15;;;;;;;7.90;3.50;;;;;;;21.30;100.00;101161.13;105740;1254;60115;-51
2023/09/07 07:48:45;;;;;;;5.80;3.10;;;;;;;21.47;100.00;101179.02;105729;1254;59804;-53
2023/09/07 07:51:13;;;;;;;4.80;3.50;;;;;;;21.59;100.00;101230.89;105604;1257;73024;-50
2023/09/07 07:53:43;;;;;;;4.50;3.20;;;;;;;21.67;100.00;101276.34;105775;1254;63123;-53
2023/09/07 07:56:18;;;;;;;10.60;3.40;;;;;;;21.70;100.00;101304.63;105634;1254;71623;-52
2023/09/07 07:58:49;;;;;;;5.40;3.10;;;;;;;21.80;100.00;101312.20;105686;1254;59746;-53
2023/09/07 08:01:20;;;;;;;5.00;2.80;;;;;;;21.96;100.00;101306.77;105761;1256;59635;-50
2023/09/07 08:03:48;;;;;;;8.70;3.80;;;;;;;22.09;100.00;101323.30;105688;1253;71818;-52
2023/09/07 08:06:16;;;;;;;5.40;2.90;;;;;;;22.22;100.00;101328.78;105709;1254;64494;-51
2023/09/07 08:08:45;;;;;;;4.80;2.60;;;;;;;22.29;98.70;101350.89;105727;1254;71461;-51
2023/09/07 08:11:14;;;;;;;5.50;2.80;;;;;;;22.29;97.61;101360.93;105687;1254;60041;-52
2023/09/07 08:13:46;;;;;;;7.70;2.80;;;;;;;22.33;93.57;101368.59;109479;1253;61756;-52
2023/09/07 08:16:14;;;;;;;8.20;2.60;;;;;;;22.45;90.38;101365.16;109396;1254;72164;-51
2023/09/07 08:18:42;;;;;;;3.50;2.40;;;;;;;22.61;90.07;101380.00;109500;1253;63207;-51
2023/09/07 08:21:10;;;;;;;5.80;2.70;;;;;;;22.81;89.10;101383.09;109346;1254;72555;-52
2023/09/07 08:23:37;;;;;;;6.60;2.70;;;;;;;23.04;86.12;101372.31;109466;1253;60053;-52
2023/09/07 08:26:06;;;;;;;10.50;2.50;;;;;;;23.28;84.73;101379.80;109363;1254;58973;-51
2023/09/07 08:28:33;;;;;;;25.40;4.70;;;;;;;23.60;82.84;101369.49;109504;1253;73061;-51
2023/09/07 08:31:04;;;;;;;10.20;2.80;;;;;;;23.98;76.07;101321.80;109495;1254;63116;-52
2023/09/07 08:33:39;;;;;;;6.20;2.50;;;;;;;24.17;72.41;101316.98;109418;1253;74554;-52
2023/09/07 08:36:08;;;;;;;6.30;2.30;;;;;;;24.14;68.31;101271.14;109426;1253;60088;-53
2023/09/07 08:38:36;;;;;;;4.30;2.30;;;;;;;24.11;67.67;101293.69;109494;1253;60129;-53
2023/09/07 08:41:06;;;;;;;5.50;2.00;;;;;;;24.06;65.67;101266.16;109531;1253;73043;-52
2023/09/07 08:43:38;;;;;;;5.90;2.10;;;;;;;24.00;64.61;101262.98;109511;1253;62902;-52
2023/09/07 08:46:32;;;;;;;6.30;2.70;;;;;;;24.06;63.53;101241.44;109397;1253;73093;-53
2023/09/07 08:49:03;;;;;;;3.90;2.00;;;;;;;24.20;63.38;101268.13;109487;1253;59544;-53
2023/09/07 08:51:32;;;;;;;3.10;1.80;;;;;;;24.33;63.69;101282.98;109437;1253;59050;-53
2023/09/07 08:54:00;;;;;;;5.30;2.10;;;;;;;24.55;60.53;101162.53;109472;1253;73039;-53
2023/09/07 08:56:28;;;;;;;4.40;2.00;;;;;;;24.57;57.97;101050.21;109471;1258;64478;-53
2023/09/07 09:04:41;;;;;;;10.30;1.90;;;;;;;24.81;57.07;101076.62;102453;1296;603486;-52
2023/09/07 09:07:09;;;;;;;8.90;2.10;;;;;;;24.85;56.39;101062.09;104864;1271;60489;-50
2023/09/07 09:09:38;;;;;;;8.90;2.20;;;;;;;24.82;56.73;101100.94;104845;1266;60332;-51
2023/09/07 09:12:11;;;;;;;4.60;2.10;;;;;;;24.87;57.23;101157.77;104913;1266;72079;-51
2023/09/07 09:14:45;;;;;;;8.20;2.20;;;;;;;24.94;55.61;101044.35;104848;1270;66061;-51
2023/09/07 09:17:13;;;;;;;3.50;2.10;;;;;;;24.74;56.35;101119.97;104799;1271;202838;-57
2023/09/07 09:19:41;;;;;;;4.80;1.90;;;;;;;24.55;56.63;101160.77;105168;1266;60289;-52
2023/09/07 09:22:09;;;;;;;9.40;1.70;;;;;;;24.61;56.38;101149.91;105233;1264;60216;-52
2023/09/07 09:24:36;;;;;;;5.40;1.90;;;;;;;24.79;53.56;100906.85;105235;1266;72390;-53
2023/09/07 09:27:04;;;;;;;3.80;1.70;;;;;;;24.75;54.62;101034.92;105230;1266;64501;-53
2023/09/07 09:29:35;;;;;;;5.30;1.70;;;;;;;24.89;53.78;100970.73;105206;1266;72646;-53
2023/09/07 09:32:08;;;;;;;5.60;1.50;;;;;;;25.04;53.26;100928.05;105223;1266;60297;-51
2023/09/07 09:34:37;;;;;;;5.60;1.70;;;;;;;25.06;52.24;100847.23;105408;1261;61509;-53
2023/09/07 09:37:04;;;;;;;3.00;1.60;;;;;;;25.00;51.55;100789.29;105385;1262;72896;-53
2023/09/07 09:39:31;;;;;;;3.80;1.60;;;;;;;24.90;51.76;100833.91;105443;1263;66265;-53
2023/09/07 09:41:59;;;;;;;6.80;1.60;;;;;;;24.97;49.64;100619.53;105372;1263;72321;-52
2023/09/07 09:44:25;;;;;;;6.70;1.90;;;;;;;25.00;50.23;100685.50;105314;1265;60359;-52
2023/09/07 09:46:56;;;;;;;5.90;1.50;;;;;;;25.06;49.16;100590.25;105314;1259;60312;-52
2023/09/07 09:49:23;;;;;;;2.30;1.20;;;;;;;25.08;48.37;100507.98;105296;1259;74459;-51
2023/09/07 09:51:53;;;;;;;7.60;3.10;;;;;;;25.09;48.90;100570.23;105303;1264;63584;-53
2023/09/07 09:54:20;;;;;;;9.00;1.90;;;;;;;25.13;46.94;100360.05;105377;1260;72715;-52
2023/09/07 09:56:47;;;;;;;2.00;1.70;;;;;;;25.06;47.56;100422.38;105361;1265;60077;-53
2023/09/07 09:59:14;;;;;;;2.40;1.40;;;;;;;25.04;46.63;100336.96;105273;1261;60702;-52
2023/09/07 10:01:44;;;;;;;4.80;1.60;;;;;;;25.08;46.84;100379.29;105220;1263;73003;-53
2023/09/07 10:04:15;;;;;;;7.30;1.60;;;;;;;25.15;47.46;100469.48;105389;1260;64327;-52
2023/09/07 10:06:54;;;;;;;4.60;1.30;;;;;;;25.23;46.95;100424.20;105385;1264;72562;-52
2023/09/07 10:09:21;;;;;;;5.60;1.50;;;;;;;25.26;46.07;100324.55;105441;1260;60316;-51
2023/09/07 10:11:53;;;;;;;4.10;1.30;;;;;;;25.30;45.52;100259.27;105286;1260;60653;-52
2023/09/07 10:14:20;;;;;;;10.10;1.40;;;;;;;25.35;45.60;100264.15;105468;1262;73022;-53
2023/09/07 10:16:52;;;;;;;4.90;1.40;;;;;;;25.36;45.22;100244.48;105496;1262;64682;-52
2023/09/07 10:19:23;;;;;;;3.90;1.10;;;;;;;25.37;45.65;100279.27;105527;1262;73664;-51
2023/09/07 10:21:55;;;;;;;5.10;2.80;;;;;;;25.46;45.23;100249.81;105547;1262;60334;-53
2023/09/07 10:24:29;;;;;;;11.50;1.60;;;;;;;25.30;46.13;100359.20;105501;1262;60613;-53
2023/09/07 10:27:07;;;;;;;2.20;1.50;;;;;;;25.32;46.72;100468.70;105475;1262;74215;-53
2023/09/07 10:30:00;;;;;;;1.80;1.10;;;;;;;25.40;44.86;100267.40;105452;1262;64751;-51
2023/09/07 10:32:38;;;;;;;9.50;1.20;;;;;;;25.16;44.50;100209.74;105352;1258;72668;-54
2023/09/07 10:35:13;;;;;;;5.20;1.70;;;;;;;25.11;44.51;100195.11;105378;1262;60174;-52
2023/09/07 10:37:41;;;;;;;6.40;1.40;;;;;;;25.29;44.51;100210.44;105392;1262;60579;-53
2023/09/07 10:40:11;;;;;;;2.30;1.20;;;;;;;25.48;44.13;100181.10;105545;1260;74203;-53
2023/09/07 10:42:38;;;;;;;3.40;1.20;;;;;;;25.59;43.13;100056.41;105347;1266;64208;-53
2023/09/07 10:45:15;;;;;;;1.90;1.30;;;;;;;25.53;43.15;100015.94;105415;1263;72739;-58
2023/09/07 10:47:43;;;;;;;8.80;1.50;;;;;;;25.60;42.78;100017.60;109018;1259;59084;-54
2023/09/07 10:50:12;;;;;;;5.90;1.60;;;;;;;25.65;41.01;99756.98;109085;1260;58839;-53
2023/09/07 10:52:41;;;;;;;11.00;1.70;;;;;;;25.48;42.35;99900.85;109087;1260;71891;-54
2023/09/07 10:55:10;;;;;;;2.50;1.40;;;;;;;25.59;41.50;99858.59;109048;1259;65327;-53
2023/09/07 10:57:42;;;;;;;6.90;1.80;;;;;;;25.59;40.73;99735.29;109068;1259;71412;-53
2023/09/07 11:03:18;;;;;;;5.80;1.30;;;;;;;25.50;40.66;99727.42;102757;1292;601770;-57
2023/09/07 11:05:46;;;;;;;4.40;1.40;;;;;;;25.44;42.05;99895.58;105105;1267;59347;-55
2023/09/07 11:08:14;;;;;;;7.80;1.20;;;;;;;25.54;42.01;99913.43;104956;1268;59413;-57
2023/09/07 11:10:42;;;;;;;6.10;1.40;;;;;;;25.73;40.16;99704.83;104832;1269;72691;-54
2023/09/07 11:13:10;;;;;;;3.30;1.40;;;;;;;25.85;39.76;99612.91;104829;1269;65636;-53
2023/09/07 11:15:39;;;;;;;4.20;1.60;;;;;;;25.87;40.62;99693.61;105053;1267;71588;-50
2023/09/07 11:18:08;;;;;;;3.80;1.50;;;;;;;25.93;41.82;99858.25;104934;1271;231418;-57
2023/09/07 11:20:36;;;;;;;3.30;1.20;;;;;;;26.06;40.39;99703.64;105289;1266;59387;-52
2023/09/07 11:23:04;;;;;;;3.50;2.00;;;;;;;26.17;41.60;99824.30;105161;1266;72452;-52
2023/09/07 11:25:36;;;;;;;3.90;2.50;;;;;;;26.27;40.24;99724.89;105144;1269;64450;-55